Time;durP1;ratioP1;P1;durP2;ratioP2;P2;SDS_P1;SDS_P2;PMS_P1;PMS_P2;Temp;Humidity;BMP_temperature;BMP_pressure;BME280_temperature;BME280_humidity;BME280_pressure;Samples;Min_cycle;Max_cycle;Signal;HPM_P1;HPM_P2
2022/01/27 00:01:30;;;;;;;34.08;18.83;;;;;;;;;;5091228;28;20208;-79
2022/01/27 00:04:11;;;;;;;31.55;17.85;;;;;;;;;;5091518;28;20217;-84
2022/01/27 00:06:39;;;;;;;36.55;18.52;;;;;;;;;;5091334;28;20197;-81
2022/01/27 00:09:15;;;;;;;36.08;18.80;;;;;;;;;;5103199;28;20189;-84
2022/01/27 00:11:45;;;;;;;37.88;19.25;;;;;;;;;;5113694;28;20228;-82
2022/01/27 00:14:14;;;;;;;34.05;19.50;;;;;;;;;;5113669;28;20795;-87
2022/01/27 00:16:51;;;;;;;38.15;19.88;;;;;;;;;;5105045;28;20231;-81
2022/01/27 00:19:18;;;;;;;39.88;19.33;;;;;;;;;;5112678;28;20192;-87
2022/01/27 00:21:47;;;;;;;39.13;19.70;;;;;;;;;;5113293;28;20649;-78
2022/01/27 00:24:18;;;;;;;38.63;18.48;;;;;;;;;;5114098;28;20301;-84
2022/01/27 00:26:46;;;;;;;38.53;19.52;;;;;;;;;;5108371;27;20189;-80
2022/01/27 00:29:13;;;;;;;35.05;18.10;;;;;;;;;;5121054;27;20195;-83
2022/01/27 00:31:40;;;;;;;34.97;18.25;;;;;;;;;;5117610;27;20193;-83
2022/01/27 00:34:07;;;;;;;41.33;22.40;;;;;;;;;;5115174;28;20246;-81
2022/01/27 00:36:35;;;;;;;46.45;21.88;;;;;;;;;;5115346;28;20192;-84
2022/01/27 00:39:02;;;;;;;41.95;21.33;;;;;;;;;;5111103;28;20185;-80
2022/01/27 00:41:31;;;;;;;44.90;18.40;;;;;;;;;;5115007;28;20663;-81
2022/01/27 00:43:58;;;;;;;50.95;20.35;;;;;;;;;;5097911;28;20221;-83
2022/01/27 00:46:25;;;;;;;45.25;21.17;;;;;;;;;;5109800;28;20220;-82
2022/01/27 00:48:52;;;;;;;40.63;18.13;;;;;;;;;;5102836;27;20204;-79
2022/01/27 00:51:22;;;;;;;41.75;18.83;;;;;;;;;;5121348;27;20227;-77
2022/01/27 00:53:54;;;;;;;42.95;19.88;;;;;;;;;;5125709;27;20676;-81
2022/01/27 00:56:28;;;;;;;46.83;20.20;;;;;;;;;;5133769;27;20196;-79
2022/01/27 00:59:05;;;;;;;48.33;21.00;;;;;;;;;;5133191;27;20192;-83
2022/01/27 01:01:37;;;;;;;43.65;21.23;;;;;;;;;;5135085;27;20191;-80
2022/01/27 01:04:07;;;;;;;38.60;18.08;;;;;;;;;;5111370;27;20216;-80
2022/01/27 01:06:41;;;;;;;43.17;19.35;;;;;;;;;;5095524;28;20193;-79
2022/01/27 01:12:20;;;;;;;48.78;21.98;;;;;;;;;;5116934;27;20232;-85
2022/01/27 01:14:52;;;;;;;41.00;18.40;;;;;;;;;;5121535;27;20247;-78
2022/01/27 01:17:32;;;;;;;39.42;18.73;;;;;;;;;;5112805;28;20197;-80
2022/01/27 01:20:21;;;;;;;47.67;18.42;;;;;;;;;;5112316;28;20228;-83
2022/01/27 01:31:09;;;;;;;43.50;19.25;;;;;;;;;;5098693;27;20208;-82
2022/01/27 01:33:39;;;;;;;42.38;18.90;;;;;;;;;;5113106;27;20226;-84
2022/01/27 01:36:14;;;;;;;37.17;17.58;;;;;;;;;;5123429;27;20199;-78
2022/01/27 01:38:41;;;;;;;36.17;17.50;;;;;;;;;;5108267;28;20279;-84
2022/01/27 01:41:08;;;;;;;40.20;17.23;;;;;;;;;;5113828;28;20256;-81
2022/01/27 01:43:36;;;;;;;40.95;17.38;;;;;;;;;;5107689;28;20550;-82
2022/01/27 01:46:04;;;;;;;41.30;17.73;;;;;;;;;;5094179;28;20283;-82
2022/01/27 01:48:32;;;;;;;40.42;18.05;;;;;;;;;;5093745;28;20232;-79
2022/01/27 01:50:59;;;;;;;39.85;17.90;;;;;;;;;;5095135;28;20197;-79
2022/01/27 01:53:27;;;;;;;37.92;17.40;;;;;;;;;;5102319;27;20192;-80
2022/01/27 01:55:54;;;;;;;41.97;17.70;;;;;;;;;;5119010;27;20208;-79
2022/01/27 01:58:21;;;;;;;47.85;18.17;;;;;;;;;;5116149;27;20646;-83
2022/01/27 02:00:48;;;;;;;37.40;17.13;;;;;;;;;;5110707;28;20195;-82
2022/01/27 02:03:17;;;;;;;39.17;17.65;;;;;;;;;;5108026;28;20193;-85
2022/01/27 02:05:53;;;;;;;40.85;19.27;;;;;;;;;;5092758;28;20225;-84
2022/01/27 02:08:37;;;;;;;40.97;17.20;;;;;;;;;;5093116;28;20637;-80
2022/01/27 02:19:10;;;;;;;41.05;16.45;;;;;;;;;;5107897;28;20283;-84
2022/01/27 02:21:44;;;;;;;38.20;17.30;;;;;;;;;;5112926;28;20956;-82
2022/01/27 02:24:12;;;;;;;34.25;16.55;;;;;;;;;;5110307;27;20211;-85
2022/01/27 02:26:39;;;;;;;36.03;15.75;;;;;;;;;;5112164;28;20204;-78
2022/01/27 02:29:06;;;;;;;35.55;15.88;;;;;;;;;;5100767;28;20204;-82
2022/01/27 02:31:33;;;;;;;34.20;16.55;;;;;;;;;;5117942;27;20196;-79
2022/01/27 02:34:01;;;;;;;35.83;17.45;;;;;;;;;;5115582;27;20579;-79
2022/01/27 02:36:28;;;;;;;35.17;15.40;;;;;;;;;;5109803;28;20223;-89
2022/01/27 02:38:57;;;;;;;31.75;16.30;;;;;;;;;;5110930;28;20189;-86
2022/01/27 02:41:27;;;;;;;34.53;15.77;;;;;;;;;;5110027;28;20223;-79
2022/01/27 02:43:56;;;;;;;36.60;16.45;;;;;;;;;;5111228;28;20197;-78
2022/01/27 02:46:26;;;;;;;30.40;13.93;;;;;;;;;;5108839;27;20374;-85
2022/01/27 02:48:53;;;;;;;35.72;15.40;;;;;;;;;;5115736;27;20207;-85
2022/01/27 02:51:21;;;;;;;37.70;16.30;;;;;;;;;;5123730;27;20671;-85
2022/01/27 02:53:48;;;;;;;31.52;15.48;;;;;;;;;;5134809;27;20640;-81
2022/01/27 02:56:16;;;;;;;35.35;18.30;;;;;;;;;;5131224;27;20203;-85
2022/01/27 02:58:43;;;;;;;28.33;14.23;;;;;;;;;;5131907;27;20275;-81
2022/01/27 03:01:11;;;;;;;29.25;14.13;;;;;;;;;;5115892;27;20634;-79
2022/01/27 03:03:38;;;;;;;31.27;14.35;;;;;;;;;;5110378;28;20666;-88
2022/01/27 03:06:05;;;;;;;29.83;14.20;;;;;;;;;;5117841;27;20195;-80
2022/01/27 03:08:32;;;;;;;26.85;14.18;;;;;;;;;;5117849;27;20196;-77
2022/01/27 03:11:03;;;;;;;28.20;13.68;;;;;;;;;;5131490;27;20192;-80
2022/01/27 03:13:32;;;;;;;32.42;14.85;;;;;;;;;;5099750;27;20190;-81
2022/01/27 03:15:59;;;;;;;29.02;14.40;;;;;;;;;;5107989;28;20224;-83
2022/01/27 03:18:26;;;;;;;29.60;13.32;;;;;;;;;;5108255;28;20295;-84
2022/01/27 03:20:53;;;;;;;29.27;14.32;;;;;;;;;;5091884;28;20200;-82
2022/01/27 03:23:20;;;;;;;28.65;14.38;;;;;;;;;;5116535;28;20196;-79
2022/01/27 03:25:48;;;;;;;32.40;16.35;;;;;;;;;;5120260;27;20208;-87
2022/01/27 03:28:18;;;;;;;31.75;14.05;;;;;;;;;;5133573;27;20282;-79
2022/01/27 03:30:46;;;;;;;32.45;14.23;;;;;;;;;;5132218;27;20610;-84
2022/01/27 03:33:13;;;;;;;32.70;14.25;;;;;;;;;;5131201;27;20220;-88
2022/01/27 03:35:40;;;;;;;26.50;13.23;;;;;;;;;;5132559;27;20220;-82
2022/01/27 03:38:08;;;;;;;28.30;13.70;;;;;;;;;;5121094;27;20579;-79
2022/01/27 03:40:35;;;;;;;30.05;12.98;;;;;;;;;;5109986;28;20197;-78
2022/01/27 03:43:05;;;;;;;27.83;12.32;;;;;;;;;;5115474;28;20204;-80
2022/01/27 03:45:33;;;;;;;29.80;13.90;;;;;;;;;;5111695;27;20319;-77
2022/01/27 03:48:01;;;;;;;25.95;12.90;;;;;;;;;;5111148;28;20199;-87
2022/01/27 03:50:29;;;;;;;30.95;13.05;;;;;;;;;;5110872;28;20196;-84
2022/01/27 03:52:56;;;;;;;36.67;15.15;;;;;;;;;;5104307;28;20528;-80
2022/01/27 03:55:23;;;;;;;28.25;13.48;;;;;;;;;;5111112;28;20231;-79
2022/01/27 03:57:50;;;;;;;25.70;12.68;;;;;;;;;;5109080;27;20197;-84
2022/01/27 04:00:17;;;;;;;25.10;14.25;;;;;;;;;;5119633;27;20783;-77
2022/01/27 04:02:56;;;;;;;26.80;12.93;;;;;;;;;;5117371;27;20215;-82
2022/01/27 04:05:24;;;;;;;28.42;12.95;;;;;;;;;;5115068;28;20227;-83
2022/01/27 04:07:57;;;;;;;25.30;11.98;;;;;;;;;;5114384;28;20606;-80
2022/01/27 04:10:25;;;;;;;22.75;12.10;;;;;;;;;;5116357;28;20196;-81
2022/01/27 04:12:52;;;;;;;20.98;10.60;;;;;;;;;;5114886;28;20606;-82
2022/01/27 04:15:19;;;;;;;26.17;11.38;;;;;;;;;;5108396;27;20231;-84
2022/01/27 04:17:46;;;;;;;27.27;13.10;;;;;;;;;;5119329;27;20559;-82
2022/01/27 04:20:14;;;;;;;24.60;12.68;;;;;;;;;;5131179;27;20188;-82
2022/01/27 04:22:42;;;;;;;28.23;11.43;;;;;;;;;;5137284;27;20196;-78
2022/01/27 04:25:11;;;;;;;26.63;11.35;;;;;;;;;;5118263;27;20216;-80
2022/01/27 04:27:41;;;;;;;25.92;12.73;;;;;;;;;;5112937;28;20230;-84
2022/01/27 04:30:14;;;;;;;25.67;12.25;;;;;;;;;;5114415;28;20196;-80
2022/01/27 04:32:46;;;;;;;26.20;12.65;;;;;;;;;;5119639;27;20212;-85
2022/01/27 04:35:16;;;;;;;26.73;12.07;;;;;;;;;;5118670;27;20239;-83
2022/01/27 04:37:57;;;;;;;27.15;11.70;;;;;;;;;;5113383;28;20224;-81
2022/01/27 04:40:31;;;;;;;24.38;11.40;;;;;;;;;;5113595;28;20269;-81
2022/01/27 04:43:05;;;;;;;30.52;13.18;;;;;;;;;;5114785;28;20201;-81
2022/01/27 04:45:39;;;;;;;23.80;12.50;;;;;;;;;;5112143;28;20760;-77
2022/01/27 04:48:11;;;;;;;27.58;12.30;;;;;;;;;;5099144;28;20197;-79
2022/01/27 04:50:39;;;;;;;32.13;13.38;;;;;;;;;;5117778;27;20197;-83
2022/01/27 04:53:12;;;;;;;25.95;11.48;;;;;;;;;;5120541;27;20196;-75
2022/01/27 04:55:40;;;;;;;27.48;11.75;;;;;;;;;;5113433;28;20232;-84
2022/01/27 04:58:12;;;;;;;26.38;13.30;;;;;;;;;;5115200;28;20295;-81
2022/01/27 05:00:39;;;;;;;22.05;11.90;;;;;;;;;;5114863;28;20265;-77
2022/01/27 05:03:16;;;;;;;25.75;11.80;;;;;;;;;;5113603;28;20227;-84
2022/01/27 05:05:43;;;;;;;25.10;13.23;;;;;;;;;;5103481;28;20693;-79
2022/01/27 05:08:17;;;;;;;28.40;12.38;;;;;;;;;;5095553;28;20193;-82
2022/01/27 05:10:54;;;;;;;27.52;11.50;;;;;;;;;;5096864;27;20197;-80
2022/01/27 05:13:23;;;;;;;21.92;10.90;;;;;;;;;;5120868;27;20558;-81
2022/01/27 05:15:50;;;;;;;24.75;11.25;;;;;;;;;;5117485;27;20231;-76
2022/01/27 05:18:17;;;;;;;28.80;12.40;;;;;;;;;;5114691;28;20269;-79
2022/01/27 05:20:45;;;;;;;21.75;12.25;;;;;;;;;;5096579;28;20192;-85
2022/01/27 05:23:13;;;;;;;22.30;11.05;;;;;;;;;;5096113;28;20188;-82
2022/01/27 05:25:41;;;;;;;21.83;10.60;;;;;;;;;;5096021;28;20316;-79
2022/01/27 05:28:08;;;;;;;23.33;11.45;;;;;;;;;;5098723;28;20223;-78
2022/01/27 05:30:35;;;;;;;24.58;11.48;;;;;;;;;;5125686;27;20191;-80
2022/01/27 05:33:03;;;;;;;25.20;12.18;;;;;;;;;;5123609;27;20239;-82
2022/01/27 05:35:30;;;;;;;24.23;11.65;;;;;;;;;;5134297;27;20306;-84
2022/01/27 05:37:58;;;;;;;25.38;10.98;;;;;;;;;;5134843;27;20192;-78
2022/01/27 05:40:26;;;;;;;24.88;11.50;;;;;;;;;;5135084;27;20604;-82
2022/01/27 05:42:53;;;;;;;24.83;11.75;;;;;;;;;;5120546;27;20190;-80
2022/01/27 05:45:21;;;;;;;24.77;12.15;;;;;;;;;;5094112;28;20225;-81
2022/01/27 05:47:48;;;;;;;25.20;12.00;;;;;;;;;;5119133;27;20200;-82
2022/01/27 05:50:15;;;;;;;25.33;12.38;;;;;;;;;;5120490;27;20208;-82
2022/01/27 05:52:42;;;;;;;23.23;12.05;;;;;;;;;;5131915;27;20214;-85
2022/01/27 05:55:10;;;;;;;21.58;11.40;;;;;;;;;;5107466;27;20585;-77
2022/01/27 05:57:39;;;;;;;24.63;11.77;;;;;;;;;;5113968;28;20589;-82
2022/01/27 06:00:07;;;;;;;23.15;11.52;;;;;;;;;;5108908;28;20189;-81
2022/01/27 06:02:34;;;;;;;27.02;11.65;;;;;;;;;;5103838;28;20209;-82
2022/01/27 06:05:02;;;;;;;21.33;11.00;;;;;;;;;;5093971;28;20717;-83
2022/01/27 06:07:30;;;;;;;25.55;11.27;;;;;;;;;;5094683;28;20193;-78
2022/01/27 06:09:57;;;;;;;24.25;12.77;;;;;;;;;;5115499;27;20263;-82
2022/01/27 06:12:24;;;;;;;28.00;12.60;;;;;;;;;;5115181;27;20676;-85
2022/01/27 06:14:53;;;;;;;26.45;12.70;;;;;;;;;;5111059;28;20209;-80
2022/01/27 06:17:20;;;;;;;23.15;13.00;;;;;;;;;;5111978;28;20199;-81
2022/01/27 06:19:48;;;;;;;20.80;10.93;;;;;;;;;;5112306;28;20289;-83
2022/01/27 06:22:16;;;;;;;21.23;11.68;;;;;;;;;;5107814;28;20289;-81
2022/01/27 06:24:43;;;;;;;23.85;11.93;;;;;;;;;;5098718;27;20209;-83
2022/01/27 06:27:10;;;;;;;21.42;11.68;;;;;;;;;;5116490;27;20180;-82
2022/01/27 06:29:38;;;;;;;20.98;11.00;;;;;;;;;;5117405;27;20189;-78
2022/01/27 06:32:06;;;;;;;21.58;11.27;;;;;;;;;;5110699;27;20196;-85
2022/01/27 06:34:34;;;;;;;23.15;12.35;;;;;;;;;;5109385;28;20218;-79
2022/01/27 06:37:01;;;;;;;22.33;11.27;;;;;;;;;;5112550;28;20234;-84
2022/01/27 06:39:28;;;;;;;26.25;12.73;;;;;;;;;;5113412;28;20196;-81
2022/01/27 06:41:55;;;;;;;23.70;12.88;;;;;;;;;;5101479;28;20197;-79
2022/01/27 06:44:23;;;;;;;27.25;15.60;;;;;;;;;;5112695;27;20216;-76
2022/01/27 06:46:51;;;;;;;19.70;11.50;;;;;;;;;;5117793;27;20196;-86
2022/01/27 06:49:19;;;;;;;22.73;12.27;;;;;;;;;;5131180;27;20199;-79
2022/01/27 06:51:46;;;;;;;25.48;13.13;;;;;;;;;;5109892;27;20558;-81
2022/01/27 06:54:15;;;;;;;22.70;11.93;;;;;;;;;;5112369;28;20579;-78
2022/01/27 06:56:43;;;;;;;22.30;12.00;;;;;;;;;;5112651;28;20221;-83
2022/01/27 06:59:10;;;;;;;20.50;12.25;;;;;;;;;;5106682;28;20189;-84
2022/01/27 07:01:39;;;;;;;21.67;13.05;;;;;;;;;;5115630;28;20634;-79
2022/01/27 07:04:06;;;;;;;22.75;12.85;;;;;;;;;;5116020;27;20227;-84
2022/01/27 07:06:35;;;;;;;22.75;12.63;;;;;;;;;;5113462;27;20193;-83
2022/01/27 07:09:02;;;;;;;27.48;14.30;;;;;;;;;;5108960;28;20185;-83
2022/01/27 07:11:30;;;;;;;24.50;13.60;;;;;;;;;;5111361;28;20196;-79
2022/01/27 07:13:57;;;;;;;22.30;12.38;;;;;;;;;;5106469;28;20213;-82
2022/01/27 07:16:24;;;;;;;20.15;11.75;;;;;;;;;;5100016;28;20227;-79
2022/01/27 07:18:52;;;;;;;21.83;12.77;;;;;;;;;;5100781;27;20206;-80
2022/01/27 07:21:20;;;;;;;22.80;13.05;;;;;;;;;;5113287;27;20191;-78
2022/01/27 07:23:48;;;;;;;25.02;12.85;;;;;;;;;;5096678;27;20235;-76
2022/01/27 07:26:16;;;;;;;23.63;13.18;;;;;;;;;;5089941;28;20292;-84
2022/01/27 07:28:43;;;;;;;26.65;12.85;;;;;;;;;;5096090;28;20635;-81
2022/01/27 07:31:10;;;;;;;21.42;11.95;;;;;;;;;;5110098;28;20212;-82
2022/01/27 07:33:37;;;;;;;25.20;13.52;;;;;;;;;;5106507;28;20306;-81
2022/01/27 07:36:05;;;;;;;24.52;14.45;;;;;;;;;;5111139;28;20216;-77
2022/01/27 07:38:32;;;;;;;28.08;14.93;;;;;;;;;;5116513;28;20196;-81
2022/01/27 07:41:00;;;;;;;24.70;12.75;;;;;;;;;;5089818;28;20658;-77
2022/01/27 07:43:27;;;;;;;23.25;13.52;;;;;;;;;;5088617;28;20630;-78
2022/01/27 07:45:54;;;;;;;22.92;13.13;;;;;;;;;;5098622;28;20211;-83
2022/01/27 07:48:22;;;;;;;22.42;13.25;;;;;;;;;;5087770;28;21517;-80
2022/01/27 07:50:49;;;;;;;24.13;15.43;;;;;;;;;;5106209;28;20545;-77
2022/01/27 07:53:16;;;;;;;26.50;14.93;;;;;;;;;;5115342;28;20193;-83
2022/01/27 07:55:43;;;;;;;26.17;13.68;;;;;;;;;;5119038;28;20316;-81
2022/01/27 07:58:11;;;;;;;22.48;14.57;;;;;;;;;;5129740;27;20183;-80
2022/01/27 08:00:40;;;;;;;27.83;14.18;;;;;;;;;;5110589;27;20205;-80
2022/01/27 08:03:07;;;;;;;25.25;12.52;;;;;;;;;;5102359;28;20193;-80
2022/01/27 08:05:34;;;;;;;26.77;14.43;;;;;;;;;;5107398;28;20208;-78
2022/01/27 08:08:01;;;;;;;28.38;14.68;;;;;;;;;;5111219;28;20208;-77
2022/01/27 08:10:37;;;;;;;22.65;12.05;;;;;;;;;;5111279;28;20275;-76
2022/01/27 08:13:04;;;;;;;19.30;12.20;;;;;;;;;;5113195;28;20283;-80
2022/01/27 08:15:32;;;;;;;22.35;11.90;;;;;;;;;;5114747;27;20223;-81
2022/01/27 08:18:00;;;;;;;24.23;13.88;;;;;;;;;;5111996;28;20197;-76
2022/01/27 08:20:27;;;;;;;22.17;11.95;;;;;;;;;;5100674;28;20227;-76
2022/01/27 08:22:55;;;;;;;23.02;13.10;;;;;;;;;;5088361;28;20202;-79
2022/01/27 08:25:22;;;;;;;25.55;14.65;;;;;;;;;;5090854;28;20201;-78
2022/01/27 08:27:52;;;;;;;24.38;13.43;;;;;;;;;;5090299;28;20550;-76
2022/01/27 08:30:21;;;;;;;26.58;14.13;;;;;;;;;;5091555;28;20189;-75
2022/01/27 08:32:57;;;;;;;27.95;14.70;;;;;;;;;;5091368;28;20275;-78
2022/01/27 08:35:25;;;;;;;27.60;13.80;;;;;;;;;;5095532;28;20609;-79
2022/01/27 08:37:52;;;;;;;27.90;14.15;;;;;;;;;;5113874;28;20203;-78
2022/01/27 08:40:20;;;;;;;24.17;13.90;;;;;;;;;;5112532;27;20196;-78
2022/01/27 08:42:48;;;;;;;27.45;14.85;;;;;;;;;;5108016;28;20685;-79
2022/01/27 08:45:16;;;;;;;29.98;14.00;;;;;;;;;;5109545;28;20229;-80
2022/01/27 08:47:44;;;;;;;26.65;14.98;;;;;;;;;;5094659;28;20650;-78
2022/01/27 08:50:14;;;;;;;28.73;15.02;;;;;;;;;;5091415;28;20711;-80
2022/01/27 08:52:41;;;;;;;30.45;15.38;;;;;;;;;;5097090;27;20633;-79
2022/01/27 08:55:09;;;;;;;27.77;15.30;;;;;;;;;;5119342;27;20220;-78
2022/01/27 08:57:39;;;;;;;26.83;14.63;;;;;;;;;;5117439;27;20589;-75
2022/01/27 09:00:08;;;;;;;25.38;15.07;;;;;;;;;;5105631;28;20193;-75
2022/01/27 09:02:35;;;;;;;28.88;16.48;;;;;;;;;;5121314;27;20228;-75
2022/01/27 09:05:03;;;;;;;24.02;14.93;;;;;;;;;;5093514;27;20209;-77
2022/01/27 09:07:33;;;;;;;24.88;14.50;;;;;;;;;;5103574;28;20193;-76
2022/01/27 09:10:00;;;;;;;27.02;15.82;;;;;;;;;;5102545;27;20208;-77
2022/01/27 09:12:27;;;;;;;27.90;15.70;;;;;;;;;;5115427;27;20200;-77
2022/01/27 09:14:54;;;;;;;28.65;14.38;;;;;;;;;;5114740;27;20219;-75
2022/01/27 09:17:25;;;;;;;27.75;15.98;;;;;;;;;;5117534;27;20227;-79
2022/01/27 09:19:52;;;;;;;25.77;14.73;;;;;;;;;;5121564;27;20192;-77
2022/01/27 09:22:20;;;;;;;31.08;16.00;;;;;;;;;;5114459;28;20188;-79
2022/01/27 09:24:53;;;;;;;30.77;15.75;;;;;;;;;;5108517;28;20212;-76
2022/01/27 09:27:21;;;;;;;30.55;14.98;;;;;;;;;;5106513;27;20200;-76
2022/01/27 09:29:48;;;;;;;26.15;13.45;;;;;;;;;;5117356;27;20188;-77
2022/01/27 09:32:15;;;;;;;27.17;14.93;;;;;;;;;;5121777;27;20214;-77
2022/01/27 09:34:45;;;;;;;27.65;15.07;;;;;;;;;;5106199;27;20213;-79
2022/01/27 09:37:12;;;;;;;30.77;16.45;;;;;;;;;;5094057;28;20396;-77
2022/01/27 09:39:40;;;;;;;32.33;15.80;;;;;;;;;;5113684;28;20623;-76
2022/01/27 09:42:09;;;;;;;35.50;16.33;;;;;;;;;;5096428;28;20198;-76
2022/01/27 09:44:37;;;;;;;31.65;15.88;;;;;;;;;;5101555;27;20222;-76
2022/01/27 09:47:06;;;;;;;33.67;16.83;;;;;;;;;;5115368;27;20185;-78
2022/01/27 09:49:37;;;;;;;31.65;15.90;;;;;;;;;;5119580;27;20188;-79
2022/01/27 09:52:05;;;;;;;26.58;15.77;;;;;;;;;;5092015;28;20194;-76
2022/01/27 09:54:32;;;;;;;29.67;15.30;;;;;;;;;;5091449;28;20205;-76
2022/01/27 09:57:00;;;;;;;26.83;15.10;;;;;;;;;;5091428;28;20259;-76
2022/01/27 09:59:28;;;;;;;26.75;15.00;;;;;;;;;;5090955;28;20193;-76
2022/01/27 10:01:57;;;;;;;34.38;16.35;;;;;;;;;;5104426;27;20195;-79
2022/01/27 10:04:26;;;;;;;28.80;15.70;;;;;;;;;;5116823;27;20215;-80
2022/01/27 10:06:58;;;;;;;31.02;16.30;;;;;;;;;;5103668;27;20200;-77
2022/01/27 10:09:27;;;;;;;26.77;14.63;;;;;;;;;;5092170;28;20207;-77
2022/01/27 10:11:55;;;;;;;25.20;14.35;;;;;;;;;;5091240;28;20189;-78
2022/01/27 10:14:24;;;;;;;26.33;14.30;;;;;;;;;;5093877;28;20205;-78
2022/01/27 10:16:54;;;;;;;30.85;15.10;;;;;;;;;;5107716;28;20224;-76
2022/01/27 10:19:22;;;;;;;26.50;13.23;;;;;;;;;;5094899;28;20646;-77
2022/01/27 10:21:50;;;;;;;22.70;14.30;;;;;;;;;;5105740;27;20193;-77
2022/01/27 10:24:20;;;;;;;28.08;14.57;;;;;;;;;;5110516;27;20268;-76
2022/01/27 10:26:53;;;;;;;27.92;14.13;;;;;;;;;;5116899;27;20268;-78
2022/01/27 10:29:34;;;;;;;29.50;15.20;;;;;;;;;;5110256;28;20212;-78
2022/01/27 10:32:05;;;;;;;31.80;14.90;;;;;;;;;;5105587;28;20574;-79
2022/01/27 10:34:33;;;;;;;31.90;14.82;;;;;;;;;;5110165;28;20737;-80
2022/01/27 10:37:00;;;;;;;22.08;12.57;;;;;;;;;;5111941;28;20227;-78
2022/01/27 10:39:27;;;;;;;23.63;13.77;;;;;;;;;;5109493;28;20199;-78
2022/01/27 10:42:00;;;;;;;22.67;12.88;;;;;;;;;;5110460;28;20246;-81
2022/01/27 10:44:34;;;;;;;25.35;13.52;;;;;;;;;;5095709;27;20243;-78
2022/01/27 10:47:05;;;;;;;26.15;12.63;;;;;;;;;;5117167;27;20654;-78
2022/01/27 10:49:37;;;;;;;19.52;11.55;;;;;;;;;;5114526;27;20642;-77
2022/01/27 10:52:05;;;;;;;20.15;11.20;;;;;;;;;;5092039;28;20243;-75
2022/01/27 10:54:37;;;;;;;19.60;12.25;;;;;;;;;;5091091;28;20616;-77
2022/01/27 10:57:05;;;;;;;28.73;13.95;;;;;;;;;;5091614;28;20235;-75
2022/01/27 10:59:33;;;;;;;21.98;11.95;;;;;;;;;;5091835;28;20296;-77
2022/01/27 11:02:00;;;;;;;25.25;12.10;;;;;;;;;;5091860;28;20615;-77
2022/01/27 11:04:35;;;;;;;23.75;11.57;;;;;;;;;;5091591;28;20217;-76
2022/01/27 11:07:03;;;;;;;22.17;12.57;;;;;;;;;;5096816;27;20188;-75
2022/01/27 11:09:33;;;;;;;19.58;11.45;;;;;;;;;;5116127;27;20283;-76
2022/01/27 11:12:06;;;;;;;20.27;12.35;;;;;;;;;;5119117;27;20203;-75
2022/01/27 11:14:34;;;;;;;19.52;11.82;;;;;;;;;;5118878;27;20212;-78
2022/01/27 11:17:02;;;;;;;23.05;12.27;;;;;;;;;;5110954;28;20212;-75
2022/01/27 11:19:58;;;;;;;19.10;10.98;;;;;;;;;;5103107;28;20195;-75
2022/01/27 11:25:49;;;;;;;21.27;11.35;;;;;;;;;;5102795;27;20212;-77
2022/01/27 11:27:59;;;;;;;18.85;10.60;;;;;;;;;;5115103;27;20252;-80
2022/01/27 11:30:29;;;;;;;19.33;11.05;;;;;;;;;;5094022;28;20193;-75
2022/01/27 11:33:00;;;;;;;20.20;12.20;;;;;;;;;;5085149;28;20810;-78
2022/01/27 11:35:28;;;;;;;20.90;12.55;;;;;;;;;;5087811;28;20607;-78
2022/01/27 11:37:57;;;;;;;18.38;10.73;;;;;;;;;;5087612;28;20249;-78
2022/01/27 11:40:35;;;;;;;17.73;10.93;;;;;;;;;;5087226;28;20199;-77
2022/01/27 11:43:04;;;;;;;17.65;12.50;;;;;;;;;;5103327;28;20184;-72
2022/01/27 11:45:34;;;;;;;18.77;11.93;;;;;;;;;;5112373;28;20208;-75
2022/01/27 11:48:07;;;;;;;18.13;10.90;;;;;;;;;;5109638;27;20192;-74
2022/01/27 11:50:37;;;;;;;19.15;11.00;;;;;;;;;;5091785;28;20208;-75
2022/01/27 11:53:07;;;;;;;16.90;10.18;;;;;;;;;;5087817;28;20197;-75
2022/01/27 11:55:44;;;;;;;24.15;9.80;;;;;;;;;;5087397;28;20213;-77
2022/01/27 11:58:14;;;;;;;15.23;9.88;;;;;;;;;;5092871;28;20656;-72
2022/01/27 12:00:44;;;;;;;25.35;9.40;;;;;;;;;;5107822;27;21660;-80
2022/01/27 12:03:14;;;;;;;13.90;9.05;;;;;;;;;;5102763;28;20212;-80
2022/01/27 12:05:45;;;;;;;15.10;8.90;;;;;;;;;;5106705;28;20534;-78
2022/01/27 12:08:26;;;;;;;14.48;9.30;;;;;;;;;;5108868;28;20188;-80
2022/01/27 12:10:58;;;;;;;17.15;9.80;;;;;;;;;;5108721;28;20195;-78
2022/01/27 12:13:47;;;;;;;14.05;8.32;;;;;;;;;;5107534;28;20592;-81
2022/01/27 12:16:26;;;;;;;14.60;9.73;;;;;;;;;;5111203;27;20316;-81
2022/01/27 12:19:02;;;;;;;13.95;8.40;;;;;;;;;;5114226;27;20223;-76
2022/01/27 12:21:29;;;;;;;13.88;8.77;;;;;;;;;;5124862;27;20247;-77
2022/01/27 12:24:11;;;;;;;16.80;8.73;;;;;;;;;;5109718;28;20220;-76
2022/01/27 12:26:48;;;;;;;13.60;8.30;;;;;;;;;;5106463;28;20189;-75
2022/01/27 12:29:22;;;;;;;17.17;8.90;;;;;;;;;;5093572;28;20197;-76
2022/01/27 12:31:50;;;;;;;18.48;8.98;;;;;;;;;;5092599;28;20224;-78
2022/01/27 12:34:18;;;;;;;16.80;10.82;;;;;;;;;;5117669;27;20219;-78
2022/01/27 12:36:55;;;;;;;18.98;9.82;;;;;;;;;;5119091;27;20194;-73
2022/01/27 12:39:22;;;;;;;14.90;9.52;;;;;;;;;;5121888;27;20219;-77
2022/01/27 12:41:53;;;;;;;16.02;9.65;;;;;;;;;;5114943;28;20196;-77
2022/01/27 12:44:20;;;;;;;17.00;10.95;;;;;;;;;;5106443;28;20212;-78
2022/01/27 12:47:02;;;;;;;19.35;12.07;;;;;;;;;;5093762;28;20202;-76
2022/01/27 12:49:39;;;;;;;20.55;10.68;;;;;;;;;;5092563;28;20209;-77
2022/01/27 12:52:08;;;;;;;13.65;9.60;;;;;;;;;;5095258;28;20658;-78
2022/01/27 12:54:35;;;;;;;14.80;10.07;;;;;;;;;;5096548;27;20209;-75
2022/01/27 12:57:04;;;;;;;21.92;12.70;;;;;;;;;;5120710;27;20191;-76
2022/01/27 12:59:32;;;;;;;12.48;8.00;;;;;;;;;;5122664;27;20188;-77
2022/01/27 13:02:03;;;;;;;15.10;9.90;;;;;;;;;;5113613;27;20203;-78
2022/01/27 13:04:31;;;;;;;16.38;10.32;;;;;;;;;;5112688;28;20258;-76
2022/01/27 13:06:59;;;;;;;16.02;8.63;;;;;;;;;;5114585;28;20208;-76
2022/01/27 13:09:28;;;;;;;10.45;8.30;;;;;;;;;;5116492;28;20184;-81
2022/01/27 13:11:56;;;;;;;13.70;9.00;;;;;;;;;;5116624;28;20228;-81
2022/01/27 13:14:25;;;;;;;15.80;9.30;;;;;;;;;;5107099;28;20241;-79
2022/01/27 13:16:57;;;;;;;12.57;8.65;;;;;;;;;;5114441;28;20283;-78
2022/01/27 13:19:42;;;;;;;12.60;8.05;;;;;;;;;;5120196;27;20246;-77
2022/01/27 13:22:15;;;;;;;11.27;7.90;;;;;;;;;;5112206;27;20189;-79
2022/01/27 13:24:46;;;;;;;16.77;8.50;;;;;;;;;;5103175;28;20228;-78
2022/01/27 13:27:14;;;;;;;13.25;8.45;;;;;;;;;;5107168;28;20196;-76
2022/01/27 13:29:43;;;;;;;14.60;7.80;;;;;;;;;;5093355;28;20191;-79
2022/01/27 13:32:10;;;;;;;10.68;6.72;;;;;;;;;;5093257;28;20235;-75
2022/01/27 13:34:42;;;;;;;13.75;7.88;;;;;;;;;;5099508;28;20216;-78
2022/01/27 13:37:09;;;;;;;13.93;7.93;;;;;;;;;;5116411;28;20195;-77
2022/01/27 13:41:16;;;;;;;16.30;8.40;;;;;;;;;;5115932;27;20188;-77
2022/01/27 13:42:37;;;;;;;13.65;6.82;;;;;;;;;;5118433;27;20216;-76
2022/01/27 13:45:07;;;;;;;11.90;6.32;;;;;;;;;;5111237;27;20216;-79
2022/01/27 13:47:35;;;;;;;11.65;7.07;;;;;;;;;;5113400;28;20196;-78
2022/01/27 13:50:06;;;;;;;8.35;5.57;;;;;;;;;;5113564;28;20215;-75
2022/01/27 13:52:40;;;;;;;9.60;6.05;;;;;;;;;;5113609;28;20680;-78
2022/01/27 13:55:12;;;;;;;7.78;5.00;;;;;;;;;;5104549;28;20313;-77
2022/01/27 13:57:48;;;;;;;6.65;5.13;;;;;;;;;;5112730;27;20211;-77
2022/01/27 14:00:21;;;;;;;8.43;5.18;;;;;;;;;;5119834;27;20188;-79
2022/01/27 14:02:52;;;;;;;5.90;4.18;;;;;;;;;;5114718;27;20224;-78
2022/01/27 14:05:20;;;;;;;6.03;5.38;;;;;;;;;;5109334;28;20208;-79
2022/01/27 14:07:50;;;;;;;9.48;6.50;;;;;;;;;;5112888;28;20557;-76
2022/01/27 14:10:19;;;;;;;7.07;4.78;;;;;;;;;;5111181;28;20195;-81
2022/01/27 14:12:54;;;;;;;8.27;4.93;;;;;;;;;;5100630;28;20201;-83
2022/01/27 14:15:30;;;;;;;7.25;5.38;;;;;;;;;;5113887;27;20231;-76
2022/01/27 14:17:59;;;;;;;8.55;4.63;;;;;;;;;;5121682;27;20212;-75
2022/01/27 14:20:28;;;;;;;7.07;5.30;;;;;;;;;;5118310;27;20192;-78
2022/01/27 14:23:03;;;;;;;8.25;4.95;;;;;;;;;;5105296;28;20664;-75
2022/01/27 14:25:36;;;;;;;9.95;6.28;;;;;;;;;;5092153;28;20768;-77
2022/01/27 14:28:10;;;;;;;10.07;6.10;;;;;;;;;;5092675;28;20201;-83
2022/01/27 14:30:39;;;;;;;8.55;6.55;;;;;;;;;;5102741;27;20228;-77
2022/01/27 14:33:06;;;;;;;11.70;6.20;;;;;;;;;;5112431;27;20219;-78
2022/01/27 14:35:33;;;;;;;11.10;6.45;;;;;;;;;;5113723;27;20544;-79
2022/01/27 14:38:00;;;;;;;10.98;6.93;;;;;;;;;;5107084;28;20578;-78
2022/01/27 14:40:31;;;;;;;13.02;6.20;;;;;;;;;;5112348;28;20193;-79
2022/01/27 14:43:01;;;;;;;12.15;6.00;;;;;;;;;;5110202;28;20654;-81
2022/01/27 14:45:28;;;;;;;9.98;6.22;;;;;;;;;;5111332;28;20269;-82
2022/01/27 14:48:01;;;;;;;12.45;7.15;;;;;;;;;;5112735;27;20197;-83
2022/01/27 14:50:28;;;;;;;8.77;6.15;;;;;;;;;;5118020;27;20638;-83
2022/01/27 14:52:57;;;;;;;8.57;7.20;;;;;;;;;;5112944;27;20194;-80
2022/01/27 14:55:24;;;;;;;13.82;8.45;;;;;;;;;;5091936;28;20213;-82
2022/01/27 14:57:52;;;;;;;10.73;6.30;;;;;;;;;;5109641;28;20212;-81